Time;durP1;ratioP1;P1;durP2;ratioP2;P2;SDS_P1;SDS_P2;PMS_P1;PMS_P2;Temp;Humidity;BMP_temperature;BMP_pressure;BME280_temperature;BME280_humidity;BME280_pressure;Samples;Min_cycle;Max_cycle;Signal;HPM_P1;HPM_P2
2022/03/07 00:01:53;;;;;;;8.00;6.00;;;;;;;;;;6197543;23;20376;-52
2022/03/07 00:04:19;;;;;;;7.00;5.40;;;;;;;;;;6202433;23;20375;-52
2022/03/07 00:06:46;;;;;;;10.60;5.20;;;;;;;;;;6202486;23;20380;-52
2022/03/07 00:09:11;;;;;;;7.27;3.90;;;;;;;;;;6203665;23;20371;-52
2022/03/07 00:11:37;;;;;;;7.93;5.07;;;;;;;;;;6200017;23;21169;-52
2022/03/07 00:14:03;;;;;;;10.83;6.07;;;;;;;;;;6201587;23;20375;-53
2022/03/07 00:16:30;;;;;;;8.50;5.83;;;;;;;;;;6201560;23;20402;-52
2022/03/07 00:18:56;;;;;;;11.70;5.60;;;;;;;;;;6201468;23;20454;-52
2022/03/07 00:21:22;;;;;;;7.77;4.83;;;;;;;;;;6200643;23;20555;-52
2022/03/07 00:23:48;;;;;;;9.30;6.70;;;;;;;;;;6202607;23;20376;-51
2022/03/07 00:26:14;;;;;;;9.20;6.57;;;;;;;;;;6202211;23;20379;-53
2022/03/07 00:28:40;;;;;;;9.50;4.97;;;;;;;;;;6200675;23;20378;-51
2022/03/07 00:31:06;;;;;;;9.93;5.80;;;;;;;;;;6200987;23;20422;-52
2022/03/07 00:33:32;;;;;;;8.20;5.97;;;;;;;;;;6200064;23;20540;-52
2022/03/07 00:35:58;;;;;;;7.60;5.87;;;;;;;;;;6199919;23;20363;-51
2022/03/07 00:38:24;;;;;;;8.80;5.87;;;;;;;;;;6199952;23;21025;-51
2022/03/07 00:40:50;;;;;;;8.40;6.17;;;;;;;;;;6200969;23;20363;-52
2022/03/07 00:43:16;;;;;;;7.03;5.30;;;;;;;;;;6199648;23;20596;-52
2022/03/07 00:45:42;;;;;;;8.23;6.57;;;;;;;;;;6201903;23;20467;-52
2022/03/07 00:48:08;;;;;;;7.00;6.13;;;;;;;;;;6201291;23;20411;-52
2022/03/07 00:50:34;;;;;;;6.53;5.93;;;;;;;;;;6201437;23;21278;-52
2022/03/07 00:53:01;;;;;;;10.70;6.03;;;;;;;;;;6201113;23;20438;-52
2022/03/07 00:55:27;;;;;;;9.50;6.47;;;;;;;;;;6201428;23;20738;-52
2022/03/07 00:57:53;;;;;;;6.57;5.67;;;;;;;;;;6199970;23;20419;-53
2022/03/07 01:00:19;;;;;;;7.07;5.70;;;;;;;;;;6201355;23;20387;-53
2022/03/07 01:02:45;;;;;;;7.70;6.13;;;;;;;;;;6200516;23;20374;-51
2022/03/07 01:05:12;;;;;;;8.27;6.87;;;;;;;;;;6202397;23;20379;-52
2022/03/07 01:07:38;;;;;;;6.10;5.50;;;;;;;;;;6202672;23;20858;-52
2022/03/07 01:10:05;;;;;;;7.53;5.27;;;;;;;;;;6200891;23;20451;-52
2022/03/07 01:12:30;;;;;;;7.57;6.00;;;;;;;;;;6200226;23;20431;-52
2022/03/07 01:14:56;;;;;;;6.90;5.60;;;;;;;;;;6201555;23;20418;-52
2022/03/07 01:17:22;;;;;;;7.87;6.20;;;;;;;;;;6200697;23;20441;-51
2022/03/07 01:19:48;;;;;;;7.80;6.07;;;;;;;;;;6202462;23;20370;-51
2022/03/07 01:22:14;;;;;;;10.63;6.83;;;;;;;;;;6201390;23;20902;-51
2022/03/07 01:24:40;;;;;;;6.97;5.23;;;;;;;;;;6199333;23;20445;-51
2022/03/07 01:27:06;;;;;;;5.57;5.07;;;;;;;;;;6200302;23;20390;-52
2022/03/07 01:29:32;;;;;;;8.07;5.37;;;;;;;;;;6201007;23;20375;-52
2022/03/07 01:31:58;;;;;;;6.57;5.47;;;;;;;;;;6200135;23;21341;-51
2022/03/07 01:34:24;;;;;;;5.90;5.40;;;;;;;;;;6200865;23;21594;-51
2022/03/07 01:36:50;;;;;;;5.47;4.97;;;;;;;;;;6198962;23;20470;-51
2022/03/07 01:39:16;;;;;;;5.73;5.13;;;;;;;;;;6199620;23;20376;-51
2022/03/07 01:41:43;;;;;;;5.70;5.13;;;;;;;;;;6201164;23;20380;-50
2022/03/07 01:44:17;;;;;;;8.20;5.57;;;;;;;;;;6200524;23;20371;-52
2022/03/07 01:46:43;;;;;;;7.77;5.03;;;;;;;;;;6201259;23;20680;-52
2022/03/07 01:49:08;;;;;;;8.13;5.67;;;;;;;;;;6201624;23;20376;-52
2022/03/07 01:51:34;;;;;;;10.07;6.20;;;;;;;;;;6200146;23;20375;-52
2022/03/07 01:54:01;;;;;;;5.90;4.30;;;;;;;;;;6198809;23;20159;-51
2022/03/07 01:56:26;;;;;;;7.00;5.63;;;;;;;;;;6202384;23;20466;-51
2022/03/07 01:58:52;;;;;;;7.40;5.37;;;;;;;;;;6202902;23;20441;-52
2022/03/07 02:01:19;;;;;;;9.00;5.60;;;;;;;;;;6203634;23;20404;-52
2022/03/07 02:03:44;;;;;;;5.50;5.00;;;;;;;;;;6202819;23;20458;-52
2022/03/07 02:06:11;;;;;;;7.33;5.77;;;;;;;;;;6202552;23;20418;-52
2022/03/07 02:08:36;;;;;;;5.70;5.13;;;;;;;;;;6202378;23;20405;-51
2022/03/07 02:11:03;;;;;;;7.07;5.07;;;;;;;;;;6202631;23;20371;-53
2022/03/07 02:13:29;;;;;;;6.50;4.60;;;;;;;;;;6202388;23;20431;-51
2022/03/07 02:15:55;;;;;;;7.43;6.20;;;;;;;;;;6202897;23;20387;-52
2022/03/07 02:18:24;;;;;;;10.30;5.33;;;;;;;;;;6203287;23;20389;-51
2022/03/07 02:20:51;;;;;;;7.53;5.37;;;;;;;;;;6202086;23;20371;-51
2022/03/07 02:23:18;;;;;;;5.77;4.60;;;;;;;;;;6200670;23;20394;-53
2022/03/07 02:25:44;;;;;;;6.03;4.70;;;;;;;;;;6202959;23;20433;-52
2022/03/07 02:28:10;;;;;;;5.67;5.10;;;;;;;;;;6200842;23;20862;-52
2022/03/07 02:30:36;;;;;;;5.90;4.87;;;;;;;;;;6202673;23;20379;-53
2022/03/07 02:33:02;;;;;;;6.27;4.93;;;;;;;;;;6203205;23;20906;-51
2022/03/07 02:35:27;;;;;;;8.33;5.30;;;;;;;;;;6202968;23;20424;-52
2022/03/07 02:37:53;;;;;;;6.17;4.30;;;;;;;;;;6202381;23;20499;-52
2022/03/07 02:40:20;;;;;;;8.90;6.03;;;;;;;;;;6203586;23;20372;-52
2022/03/07 02:42:46;;;;;;;8.90;6.17;;;;;;;;;;6200377;23;20392;-52
2022/03/07 02:45:12;;;;;;;6.57;5.17;;;;;;;;;;6203242;23;20374;-53
2022/03/07 02:47:38;;;;;;;5.03;4.53;;;;;;;;;;6204337;23;20401;-52
2022/03/07 02:50:04;;;;;;;5.67;5.03;;;;;;;;;;6203797;23;20391;-53
2022/03/07 02:52:30;;;;;;;7.77;5.80;;;;;;;;;;6205599;23;20435;-52
2022/03/07 02:54:56;;;;;;;7.53;5.70;;;;;;;;;;6204906;23;20387;-52
2022/03/07 02:57:22;;;;;;;5.67;5.03;;;;;;;;;;6205324;23;20471;-53
2022/03/07 02:59:48;;;;;;;6.07;4.83;;;;;;;;;;6203987;23;20149;-52
2022/03/07 03:02:15;;;;;;;5.17;4.17;;;;;;;;;;6204881;23;20442;-55
2022/03/07 03:04:41;;;;;;;6.40;5.00;;;;;;;;;;6203723;23;20783;-52
2022/03/07 03:07:07;;;;;;;12.33;4.70;;;;;;;;;;6203808;23;20375;-52
2022/03/07 03:09:33;;;;;;;5.77;5.17;;;;;;;;;;6201063;23;20394;-52
2022/03/07 03:11:59;;;;;;;8.70;5.97;;;;;;;;;;6201620;23;20454;-52
2022/03/07 03:14:25;;;;;;;7.03;6.07;;;;;;;;;;6201980;23;20372;-52
2022/03/07 03:16:51;;;;;;;6.23;4.43;;;;;;;;;;6202102;23;20394;-52
2022/03/07 03:19:17;;;;;;;6.00;4.70;;;;;;;;;;6201750;23;20858;-52
2022/03/07 03:21:43;;;;;;;7.00;5.27;;;;;;;;;;6201031;23;20961;-52
2022/03/07 03:24:09;;;;;;;9.07;6.40;;;;;;;;;;6202224;23;20822;-52
2022/03/07 03:26:36;;;;;;;5.80;5.20;;;;;;;;;;6202586;23;20368;-52
2022/03/07 03:29:02;;;;;;;7.97;6.00;;;;;;;;;;6202177;23;20359;-52
2022/03/07 03:31:28;;;;;;;9.87;5.80;;;;;;;;;;6199856;23;20387;-52
2022/03/07 03:33:54;;;;;;;8.57;5.33;;;;;;;;;;6202607;23;20398;-52
2022/03/07 03:36:20;;;;;;;6.20;4.83;;;;;;;;;;6203112;23;20379;-52
2022/03/07 03:38:46;;;;;;;9.90;6.20;;;;;;;;;;6201980;23;20387;-52
2022/03/07 03:41:12;;;;;;;6.63;5.80;;;;;;;;;;6201471;23;20202;-52
2022/03/07 03:43:38;;;;;;;7.00;5.90;;;;;;;;;;6201848;23;20714;-52
2022/03/07 03:46:04;;;;;;;5.70;5.07;;;;;;;;;;6200640;23;20459;-51
2022/03/07 03:48:30;;;;;;;6.10;5.00;;;;;;;;;;6202078;23;20908;-52
2022/03/07 03:50:56;;;;;;;9.90;5.90;;;;;;;;;;6202848;23;20395;-52
2022/03/07 03:53:22;;;;;;;7.53;6.00;;;;;;;;;;6202490;23;20518;-52
2022/03/07 03:55:48;;;;;;;7.23;5.20;;;;;;;;;;6202338;23;20442;-52
2022/03/07 03:58:14;;;;;;;12.97;4.80;;;;;;;;;;6203007;23;20375;-52
2022/03/07 04:00:40;;;;;;;6.90;5.33;;;;;;;;;;6203101;23;20442;-53
2022/03/07 04:03:06;;;;;;;10.03;5.80;;;;;;;;;;6202098;23;20382;-52
2022/03/07 04:05:32;;;;;;;7.77;4.80;;;;;;;;;;6202660;23;20678;-54
2022/03/07 04:07:58;;;;;;;7.10;5.10;;;;;;;;;;6202031;23;20399;-52
2022/03/07 04:10:24;;;;;;;6.30;4.93;;;;;;;;;;6202412;23;20372;-52
2022/03/07 04:12:50;;;;;;;11.20;7.30;;;;;;;;;;6201947;23;20744;-51
2022/03/07 04:15:16;;;;;;;11.60;5.47;;;;;;;;;;6202021;23;20372;-51
2022/03/07 04:17:42;;;;;;;6.13;5.20;;;;;;;;;;6202357;23;20486;-52
2022/03/07 04:20:08;;;;;;;11.50;6.20;;;;;;;;;;6202270;23;20920;-52
2022/03/07 04:22:34;;;;;;;13.00;6.13;;;;;;;;;;6203407;23;20462;-53
2022/03/07 04:25:00;;;;;;;11.93;6.40;;;;;;;;;;6203984;23;20399;-51
2022/03/07 04:27:26;;;;;;;7.40;6.07;;;;;;;;;;6204132;23;20386;-53
2022/03/07 04:29:54;;;;;;;7.50;5.60;;;;;;;;;;6203753;23;20375;-52
2022/03/07 04:32:21;;;;;;;8.47;5.70;;;;;;;;;;6204509;23;20514;-51
2022/03/07 04:34:47;;;;;;;8.63;5.47;;;;;;;;;;6205821;23;20387;-52
2022/03/07 04:37:13;;;;;;;6.80;5.50;;;;;;;;;;6206218;23;20363;-52
2022/03/07 04:39:39;;;;;;;7.40;6.40;;;;;;;;;;6206512;23;20895;-52
2022/03/07 04:42:05;;;;;;;7.43;5.23;;;;;;;;;;6204772;23;20446;-52
2022/03/07 04:44:31;;;;;;;7.50;6.40;;;;;;;;;;6207180;23;20379;-53
2022/03/07 04:46:57;;;;;;;9.73;6.70;;;;;;;;;;6203901;23;20448;-51
2022/03/07 04:49:23;;;;;;;7.70;6.37;;;;;;;;;;6205260;23;20375;-51
2022/03/07 04:51:49;;;;;;;7.77;5.87;;;;;;;;;;6205907;23;20415;-53
2022/03/07 04:54:16;;;;;;;13.00;7.00;;;;;;;;;;6205071;23;20422;-52
2022/03/07 04:56:47;;;;;;;11.63;7.40;;;;;;;;;;6204960;23;20446;-53
2022/03/07 04:59:13;;;;;;;11.13;7.10;;;;;;;;;;6205628;23;20380;-52
2022/03/07 05:01:39;;;;;;;6.73;5.77;;;;;;;;;;6203948;23;20447;-54
2022/03/07 05:04:05;;;;;;;7.07;5.23;;;;;;;;;;6202837;23;20395;-52
2022/03/07 05:06:31;;;;;;;8.50;6.37;;;;;;;;;;6204364;23;20405;-52
2022/03/07 05:08:57;;;;;;;8.10;6.90;;;;;;;;;;6204350;23;20371;-51
2022/03/07 05:11:24;;;;;;;9.07;6.23;;;;;;;;;;6201634;23;20387;-51
2022/03/07 05:13:50;;;;;;;12.40;6.70;;;;;;;;;;6200040;23;20434;-52
2022/03/07 05:16:15;;;;;;;9.93;6.40;;;;;;;;;;6199987;23;20387;-52
2022/03/07 05:18:41;;;;;;;10.70;7.10;;;;;;;;;;6203877;23;20398;-53
2022/03/07 05:21:07;;;;;;;8.87;6.70;;;;;;;;;;6204672;23;20391;-52
2022/03/07 05:23:33;;;;;;;9.07;6.93;;;;;;;;;;6197186;23;20912;-53
2022/03/07 05:25:59;;;;;;;17.37;6.27;;;;;;;;;;6195878;23;20360;-52
2022/03/07 05:28:25;;;;;;;10.60;6.17;;;;;;;;;;6197981;23;20836;-54
2022/03/07 05:30:51;;;;;;;12.17;7.47;;;;;;;;;;6201027;23;20375;-52
2022/03/07 05:33:17;;;;;;;8.60;6.80;;;;;;;;;;6199614;23;20877;-52
2022/03/07 05:35:43;;;;;;;9.00;5.50;;;;;;;;;;6202668;23;20378;-52
2022/03/07 05:38:09;;;;;;;9.80;7.20;;;;;;;;;;6202507;23;20746;-52
2022/03/07 05:40:35;;;;;;;12.27;8.40;;;;;;;;;;6201949;23;20362;-52
2022/03/07 05:43:01;;;;;;;9.30;7.10;;;;;;;;;;6202024;23;20176;-53
2022/03/07 05:45:27;;;;;;;10.93;7.83;;;;;;;;;;6203521;23;20909;-52
2022/03/07 05:47:53;;;;;;;9.47;6.23;;;;;;;;;;6201933;23;20375;-55
2022/03/07 05:50:19;;;;;;;10.67;6.80;;;;;;;;;;6202579;23;20908;-53
2022/03/07 05:52:45;;;;;;;12.20;8.07;;;;;;;;;;6202262;23;20183;-52
2022/03/07 05:55:11;;;;;;;11.80;8.00;;;;;;;;;;6203651;23;20386;-54
2022/03/07 05:57:37;;;;;;;10.60;7.23;;;;;;;;;;6202447;23;20379;-51
2022/03/07 06:00:04;;;;;;;8.67;7.03;;;;;;;;;;6203190;23;20498;-53
2022/03/07 06:02:30;;;;;;;10.10;7.70;;;;;;;;;;6200500;23;20391;-53
2022/03/07 06:04:56;;;;;;;8.80;6.20;;;;;;;;;;6204254;23;20411;-53
2022/03/07 06:07:22;;;;;;;9.70;5.50;;;;;;;;;;6203533;23;20376;-54
2022/03/07 06:09:48;;;;;;;8.40;7.20;;;;;;;;;;6202443;23;20414;-53
2022/03/07 06:12:14;;;;;;;13.43;6.20;;;;;;;;;;6202095;23;20433;-54
2022/03/07 06:14:40;;;;;;;8.13;6.57;;;;;;;;;;6204326;23;20399;-54
2022/03/07 06:17:06;;;;;;;18.23;5.80;;;;;;;;;;6204003;23;20442;-52
2022/03/07 06:19:32;;;;;;;8.27;5.70;;;;;;;;;;6205419;23;20144;-54
2022/03/07 06:21:59;;;;;;;10.33;6.47;;;;;;;;;;6204310;23;20851;-53
2022/03/07 06:24:28;;;;;;;6.33;4.43;;;;;;;;;;6205236;23;20367;-52
2022/03/07 06:26:54;;;;;;;10.30;6.07;;;;;;;;;;6204497;23;20403;-51
2022/03/07 06:29:20;;;;;;;8.07;5.10;;;;;;;;;;6201874;23;20442;-52
2022/03/07 06:31:46;;;;;;;10.63;6.60;;;;;;;;;;6202288;23;20149;-52
2022/03/07 06:34:12;;;;;;;9.20;5.90;;;;;;;;;;6202594;23;20383;-54
2022/03/07 06:36:39;;;;;;;11.93;5.90;;;;;;;;;;6202930;23;20776;-53
2022/03/07 06:39:05;;;;;;;6.30;5.10;;;;;;;;;;6202719;23;20478;-53
2022/03/07 06:41:31;;;;;;;9.30;6.47;;;;;;;;;;6201845;23;20396;-53
2022/03/07 06:43:58;;;;;;;11.10;6.33;;;;;;;;;;6202569;23;20378;-53
2022/03/07 06:46:24;;;;;;;6.63;5.60;;;;;;;;;;6204194;23;20698;-52
2022/03/07 06:48:50;;;;;;;13.87;5.80;;;;;;;;;;6203893;23;20364;-53
2022/03/07 06:51:18;;;;;;;11.43;6.07;;;;;;;;;;6202650;23;20937;-54
2022/03/07 06:53:44;;;;;;;5.23;4.73;;;;;;;;;;6203448;23;20463;-54
2022/03/07 06:56:10;;;;;;;5.80;4.40;;;;;;;;;;6201359;23;20905;-53
2022/03/07 06:58:36;;;;;;;9.80;7.00;;;;;;;;;;6202417;23;20375;-54
2022/03/07 07:01:03;;;;;;;11.33;5.60;;;;;;;;;;6202874;23;20894;-53
2022/03/07 07:03:29;;;;;;;5.63;4.67;;;;;;;;;;6202053;23;20450;-54
2022/03/07 07:05:55;;;;;;;9.10;6.13;;;;;;;;;;6204196;23;20443;-52
2022/03/07 07:08:21;;;;;;;8.40;4.83;;;;;;;;;;6203025;23;20441;-54
2022/03/07 07:10:47;;;;;;;6.93;5.60;;;;;;;;;;6200420;23;20446;-52
2022/03/07 07:13:14;;;;;;;5.97;4.77;;;;;;;;;;6199659;23;20431;-52
2022/03/07 07:15:41;;;;;;;5.80;4.83;;;;;;;;;;6202096;23;20382;-51
2022/03/07 07:18:07;;;;;;;7.67;5.57;;;;;;;;;;6202494;23;20391;-52
2022/03/07 07:20:33;;;;;;;8.87;5.70;;;;;;;;;;6203732;23;20382;-52
2022/03/07 07:22:59;;;;;;;8.40;6.83;;;;;;;;;;6199098;23;20758;-51
2022/03/07 07:25:25;;;;;;;6.07;4.23;;;;;;;;;;6197463;23;20416;-52
2022/03/07 07:27:51;;;;;;;6.60;5.30;;;;;;;;;;6196268;23;21047;-52
2022/03/07 07:30:17;;;;;;;6.07;5.47;;;;;;;;;;6198063;23;20372;-52
2022/03/07 07:32:43;;;;;;;8.30;4.50;;;;;;;;;;6195329;23;20435;-51
2022/03/07 07:35:09;;;;;;;7.17;5.13;;;;;;;;;;6201864;23;20407;-52
2022/03/07 07:37:35;;;;;;;16.47;5.47;;;;;;;;;;6202967;23;20714;-52
2022/03/07 07:40:03;;;;;;;10.83;5.40;;;;;;;;;;6203704;23;20462;-51
2022/03/07 07:42:29;;;;;;;8.40;5.93;;;;;;;;;;6200909;23;20430;-53
2022/03/07 07:44:55;;;;;;;8.77;4.67;;;;;;;;;;6202692;23;20367;-53
2022/03/07 07:47:21;;;;;;;8.00;5.33;;;;;;;;;;6202444;23;21358;-53
2022/03/07 07:49:47;;;;;;;7.97;5.37;;;;;;;;;;6201295;23;20379;-52
2022/03/07 07:52:13;;;;;;;6.40;5.57;;;;;;;;;;6201978;23;20510;-53
2022/03/07 07:54:39;;;;;;;6.57;4.80;;;;;;;;;;6201116;23;20833;-52
2022/03/07 07:57:07;;;;;;;7.60;5.20;;;;;;;;;;6201442;23;20407;-53
2022/03/07 07:59:33;;;;;;;9.10;5.40;;;;;;;;;;6202182;23;20364;-51
2022/03/07 08:01:59;;;;;;;8.20;5.47;;;;;;;;;;6201480;23;20526;-52
2022/03/07 08:04:25;;;;;;;5.13;4.47;;;;;;;;;;6202188;23;20368;-52
2022/03/07 08:06:51;;;;;;;10.40;6.40;;;;;;;;;;6201302;23;20450;-52
2022/03/07 08:09:17;;;;;;;10.27;5.27;;;;;;;;;;6201495;23;20368;-53
2022/03/07 08:11:43;;;;;;;7.83;5.67;;;;;;;;;;6199828;23;20367;-53
2022/03/07 08:14:08;;;;;;;7.50;5.60;;;;;;;;;;6201148;23;20932;-54
2022/03/07 08:16:34;;;;;;;7.93;6.17;;;;;;;;;;6202500;23;20465;-53
2022/03/07 08:19:00;;;;;;;6.17;4.87;;;;;;;;;;6203193;23;20368;-52
2022/03/07 08:21:27;;;;;;;11.97;6.47;;;;;;;;;;6202393;23;20371;-54
2022/03/07 08:23:54;;;;;;;10.33;6.80;;;;;;;;;;6202513;23;20831;-53
2022/03/07 08:26:20;;;;;;;8.07;6.00;;;;;;;;;;6202783;23;20402;-53
2022/03/07 08:28:46;;;;;;;11.70;6.30;;;;;;;;;;6201374;23;20425;-53
2022/03/07 08:31:12;;;;;;;8.63;5.23;;;;;;;;;;6201661;23;20897;-53
2022/03/07 08:33:38;;;;;;;13.23;6.33;;;;;;;;;;6203672;23;20223;-51
2022/03/07 08:36:04;;;;;;;10.03;5.93;;;;;;;;;;6203192;23;20376;-53
2022/03/07 08:38:31;;;;;;;15.37;6.20;;;;;;;;;;6202971;23;20439;-54
2022/03/07 08:40:57;;;;;;;7.93;6.70;;;;;;;;;;6203010;23;20474;-54
2022/03/07 08:43:23;;;;;;;11.17;5.53;;;;;;;;;;6201828;23;20375;-53
2022/03/07 08:45:50;;;;;;;9.47;5.60;;;;;;;;;;6201555;23;20421;-54
2022/03/07 08:48:16;;;;;;;10.13;8.03;;;;;;;;;;6201675;23;20410;-53
2022/03/07 08:50:42;;;;;;;8.83;5.87;;;;;;;;;;6199899;23;20379;-52
2022/03/07 08:53:08;;;;;;;10.00;6.90;;;;;;;;;;6201123;23;20427;-52
2022/03/07 08:55:33;;;;;;;16.07;7.73;;;;;;;;;;6201625;23;20444;-53
2022/03/07 08:58:00;;;;;;;15.13;6.50;;;;;;;;;;6200801;23;20380;-52
2022/03/07 09:00:26;;;;;;;8.47;5.97;;;;;;;;;;6202821;23;21092;-53
2022/03/07 09:02:52;;;;;;;8.23;6.87;;;;;;;;;;6201652;23;20376;-53
2022/03/07 09:05:18;;;;;;;9.50;7.40;;;;;;;;;;6201940;23;20354;-54
2022/03/07 09:07:45;;;;;;;6.43;5.33;;;;;;;;;;6199449;23;20395;-54
2022/03/07 09:10:11;;;;;;;11.30;8.87;;;;;;;;;;6202394;23;20383;-53
2022/03/07 09:12:37;;;;;;;7.03;5.93;;;;;;;;;;6195391;23;20435;-53
2022/03/07 09:15:05;;;;;;;10.33;7.73;;;;;;;;;;6194015;23;20368;-52
2022/03/07 09:17:31;;;;;;;7.13;5.70;;;;;;;;;;6195396;23;20391;-54
2022/03/07 09:19:58;;;;;;;8.70;5.87;;;;;;;;;;6196196;23;20375;-52
2022/03/07 09:22:24;;;;;;;8.67;5.70;;;;;;;;;;6194762;23;20910;-52
2022/03/07 09:24:50;;;;;;;7.40;5.47;;;;;;;;;;6195807;23;20379;-53
2022/03/07 09:27:16;;;;;;;10.10;7.20;;;;;;;;;;6194099;23;20380;-52
2022/03/07 09:29:42;;;;;;;8.70;6.03;;;;;;;;;;6195310;23;20387;-52
2022/03/07 09:32:08;;;;;;;11.13;6.40;;;;;;;;;;6194256;23;20457;-54
2022/03/07 09:34:34;;;;;;;8.47;7.10;;;;;;;;;;6195179;23;20375;-53
2022/03/07 09:37:00;;;;;;;11.03;6.70;;;;;;;;;;6195737;23;20367;-52
2022/03/07 09:39:27;;;;;;;9.87;6.60;;;;;;;;;;6194882;23;20434;-53
2022/03/07 09:41:53;;;;;;;12.30;7.67;;;;;;;;;;6195420;23;20867;-52
2022/03/07 09:44:19;;;;;;;11.80;6.77;;;;;;;;;;6195595;23;20437;-52
2022/03/07 09:46:45;;;;;;;7.93;6.03;;;;;;;;;;6195904;23;20391;-52
2022/03/07 09:49:11;;;;;;;8.47;6.10;;;;;;;;;;6194940;23;20770;-52
2022/03/07 09:51:37;;;;;;;6.80;6.10;;;;;;;;;;6196257;23;20742;-53
2022/03/07 09:54:03;;;;;;;11.30;7.13;;;;;;;;;;6196304;23;20387;-53
2022/03/07 09:56:29;;;;;;;10.57;6.80;;;;;;;;;;6195702;23;20155;-52
2022/03/07 09:58:55;;;;;;;8.70;6.40;;;;;;;;;;6194209;23;20495;-54
2022/03/07 10:01:21;;;;;;;16.37;8.37;;;;;;;;;;6195128;23;20375;-53
2022/03/07 10:03:47;;;;;;;12.50;7.60;;;;;;;;;;6195212;23;20390;-51
2022/03/07 10:06:17;;;;;;;8.33;7.43;;;;;;;;;;6194491;23;20375;-51
2022/03/07 10:08:56;;;;;;;8.90;7.30;;;;;;;;;;6192003;23;20382;-52
2022/03/07 10:11:22;;;;;;;12.20;7.37;;;;;;;;;;6195440;23;20829;-52
2022/03/07 10:13:58;;;;;;;9.97;6.87;;;;;;;;;;6195475;23;20441;-52
2022/03/07 10:16:24;;;;;;;10.80;7.17;;;;;;;;;;6196271;23;21571;-55
2022/03/07 10:18:51;;;;;;;9.37;6.97;;;;;;;;;;6196042;23;20378;-52
2022/03/07 10:21:21;;;;;;;7.27;6.30;;;;;;;;;;6197752;23;20363;-52
2022/03/07 10:23:51;;;;;;;17.20;8.60;;;;;;;;;;6197345;23;20472;-53
2022/03/07 10:26:17;;;;;;;11.00;6.90;;;;;;;;;;6197248;23;20797;-54
2022/03/07 10:28:43;;;;;;;12.03;8.30;;;;;;;;;;6194680;23;20380;-52
2022/03/07 10:31:15;;;;;;;9.97;8.50;;;;;;;;;;6193284;23;20380;-51
2022/03/07 10:33:41;;;;;;;11.03;7.00;;;;;;;;;;6197236;23;20502;-53
2022/03/07 10:36:07;;;;;;;9.57;6.80;;;;;;;;;;6197339;23;20467;-51
2022/03/07 10:38:34;;;;;;;13.37;7.20;;;;;;;;;;6196832;23;20379;-53
2022/03/07 10:40:59;;;;;;;10.60;7.07;;;;;;;;;;6195733;23;20371;-53
2022/03/07 10:43:26;;;;;;;12.80;8.50;;;;;;;;;;6196273;23;20395;-53
2022/03/07 10:45:53;;;;;;;11.00;8.00;;;;;;;;;;6198059;23;20378;-55
2022/03/07 10:48:19;;;;;;;14.70;9.10;;;;;;;;;;6194608;23;20383;-53
2022/03/07 10:50:49;;;;;;;11.37;7.93;;;;;;;;;;6195033;23;20446;-54
2022/03/07 10:53:15;;;;;;;14.63;7.93;;;;;;;;;;6193738;23;20423;-59
2022/03/07 10:55:41;;;;;;;10.57;7.43;;;;;;;;;;6197100;23;20399;-54
2022/03/07 10:58:13;;;;;;;12.80;8.30;;;;;;;;;;6196667;23;20386;-53
2022/03/07 11:00:51;;;;;;;14.13;9.50;;;;;;;;;;6196514;23;20428;-54
2022/03/07 11:03:18;;;;;;;10.63;7.77;;;;;;;;;;6196734;23;20379;-52
2022/03/07 11:05:45;;;;;;;10.27;7.77;;;;;;;;;;6197383;23;20367;-53
2022/03/07 11:08:11;;;;;;;12.47;7.23;;;;;;;;;;6195868;23;20409;-52
2022/03/07 11:10:37;;;;;;;11.13;7.40;;;;;;;;;;6195696;23;20368;-52
2022/03/07 11:13:03;;;;;;;14.23;9.10;;;;;;;;;;6194334;23;20431;-52
2022/03/07 11:15:29;;;;;;;13.20;8.00;;;;;;;;;;6196620;23;21105;-53
2022/03/07 11:17:55;;;;;;;7.87;7.07;;;;;;;;;;6195689;23;20793;-51
2022/03/07 11:20:21;;;;;;;11.60;8.17;;;;;;;;;;6194153;23;20406;-54
2022/03/07 11:22:47;;;;;;;10.27;6.87;;;;;;;;;;6193912;23;20412;-53
2022/03/07 11:25:16;;;;;;;9.30;6.27;;;;;;;;;;6197403;23;20372;-53
2022/03/07 11:27:43;;;;;;;12.77;7.40;;;;;;;;;;6193826;23;20446;-54
2022/03/07 11:30:13;;;;;;;12.03;8.30;;;;;;;;;;6193217;23;20407;-52
2022/03/07 11:32:39;;;;;;;13.30;8.20;;;;;;;;;;6196230;23;20455;-52
2022/03/07 11:35:05;;;;;;;10.23;7.80;;;;;;;;;;6195331;23;20375;-52
2022/03/07 11:37:32;;;;;;;8.80;6.83;;;;;;;;;;6197681;23;20375;-52
2022/03/07 11:39:58;;;;;;;10.83;8.33;;;;;;;;;;6201565;23;20410;-52
2022/03/07 11:42:25;;;;;;;11.03;8.30;;;;;;;;;;6202328;23;20379;-56
2022/03/07 11:44:51;;;;;;;10.90;7.53;;;;;;;;;;6200213;23;20842;-51
2022/03/07 11:47:18;;;;;;;9.97;8.07;;;;;;;;;;6197322;23;20470;-52
2022/03/07 11:49:44;;;;;;;11.60;7.67;;;;;;;;;;6198331;23;20367;-54
2022/03/07 11:52:11;;;;;;;10.27;8.00;;;;;;;;;;6198590;23;20446;-51
2022/03/07 11:54:53;;;;;;;11.30;7.63;;;;;;;;;;6196575;23;20465;-53
2022/03/07 11:57:19;;;;;;;14.57;8.20;;;;;;;;;;6201993;23;20375;-52
2022/03/07 11:59:45;;;;;;;10.70;7.50;;;;;;;;;;6197850;23;20430;-52
2022/03/07 12:02:11;;;;;;;10.07;7.60;;;;;;;;;;6196698;23;20375;-54
2022/03/07 12:04:44;;;;;;;11.17;8.50;;;;;;;;;;6199690;23;20402;-53
2022/03/07 12:07:10;;;;;;;7.37;6.63;;;;;;;;;;6198096;23;20367;-51
2022/03/07 12:09:37;;;;;;;9.53;7.27;;;;;;;;;;6196498;23;20376;-52
2022/03/07 12:12:03;;;;;;;9.27;8.27;;;;;;;;;;6196483;23;20419;-53
2022/03/07 12:14:29;;;;;;;11.63;8.77;;;;;;;;;;6197459;23;20846;-55
2022/03/07 12:16:55;;;;;;;8.30;6.70;;;;;;;;;;6197384;23;21158;-53
2022/03/07 12:19:24;;;;;;;11.63;7.83;;;;;;;;;;6200235;23;20438;-52
2022/03/07 12:21:50;;;;;;;10.93;8.47;;;;;;;;;;6199925;23;20769;-53
2022/03/07 12:24:17;;;;;;;9.33;7.20;;;;;;;;;;6199908;23;20386;-53
2022/03/07 12:26:46;;;;;;;12.07;7.93;;;;;;;;;;6201375;23;20368;-52
2022/03/07 12:29:12;;;;;;;9.20;7.20;;;;;;;;;;6199837;23;20430;-54
2022/03/07 12:31:38;;;;;;;7.67;5.80;;;;;;;;;;6202093;23;20376;-53
2022/03/07 12:34:06;;;;;;;9.07;7.20;;;;;;;;;;6201303;23;20536;-53
2022/03/07 12:36:32;;;;;;;11.67;8.27;;;;;;;;;;6202329;23;20453;-52
2022/03/07 12:39:00;;;;;;;7.50;6.40;;;;;;;;;;6201730;23;20375;-52
2022/03/07 12:41:29;;;;;;;10.07;8.13;;;;;;;;;;6204005;23;20534;-52
2022/03/07 12:43:55;;;;;;;8.53;7.60;;;;;;;;;;6201405;23;20379;-54
2022/03/07 12:46:21;;;;;;;8.37;7.47;;;;;;;;;;6203467;23;20515;-52
2022/03/07 12:48:47;;;;;;;11.37;8.63;;;;;;;;;;6203695;23;20491;-52
2022/03/07 12:51:16;;;;;;;11.27;7.57;;;;;;;;;;6203113;23;20371;-52
2022/03/07 12:53:46;;;;;;;11.50;8.57;;;;;;;;;;6202311;23;20470;-52
2022/03/07 12:56:13;;;;;;;10.13;8.13;;;;;;;;;;6202005;23;20398;-52
2022/03/07 12:58:48;;;;;;;9.20;7.90;;;;;;;;;;6203209;23;20360;-52
2022/03/07 13:01:14;;;;;;;7.67;6.87;;;;;;;;;;6198258;23;20433;-52
2022/03/07 13:03:41;;;;;;;10.17;7.77;;;;;;;;;;6202176;23;20403;-53
2022/03/07 13:06:06;;;;;;;10.80;8.20;;;;;;;;;;6201043;23;20395;-54
2022/03/07 13:08:33;;;;;;;9.40;8.17;;;;;;;;;;6196786;23;20378;-53
2022/03/07 13:10:59;;;;;;;10.30;9.23;;;;;;;;;;6194216;23;20928;-52
2022/03/07 13:13:25;;;;;;;10.37;8.57;;;;;;;;;;6195338;23;20439;-52
2022/03/07 13:15:51;;;;;;;9.03;8.10;;;;;;;;;;6193873;23;20422;-51
2022/03/07 13:18:17;;;;;;;11.77;7.90;;;;;;;;;;6197283;23;20419;-59
2022/03/07 13:20:43;;;;;;;9.67;7.90;;;;;;;;;;6196697;23;20406;-52
2022/03/07 13:23:09;;;;;;;10.20;8.50;;;;;;;;;;6195675;23;20430;-57
2022/03/07 13:25:36;;;;;;;10.77;8.00;;;;;;;;;;6196111;23;20379;-53
2022/03/07 13:28:02;;;;;;;11.30;8.90;;;;;;;;;;6193680;23;20383;-54
2022/03/07 13:30:28;;;;;;;9.40;7.47;;;;;;;;;;6192435;23;20390;-53
2022/03/07 13:33:02;;;;;;;7.80;6.77;;;;;;;;;;6191928;23;20956;-53
2022/03/07 13:35:28;;;;;;;9.30;7.57;;;;;;;;;;6194647;23;20375;-52
2022/03/07 13:37:54;;;;;;;9.73;7.60;;;;;;;;;;6190626;23;20387;-53
2022/03/07 13:40:21;;;;;;;13.10;8.27;;;;;;;;;;6194845;23;20466;-53
2022/03/07 13:42:48;;;;;;;8.93;7.30;;;;;;;;;;6191100;23;20403;-54
2022/03/07 13:45:21;;;;;;;9.67;7.63;;;;;;;;;;6192794;23;21339;-53
2022/03/07 13:47:48;;;;;;;8.20;7.00;;;;;;;;;;6193434;23;20383;-54
2022/03/07 13:50:23;;;;;;;10.63;7.17;;;;;;;;;;6194108;23;20414;-53
2022/03/07 13:52:49;;;;;;;10.10;9.10;;;;;;;;;;6194045;23;21183;-52
2022/03/07 13:55:19;;;;;;;9.23;6.60;;;;;;;;;;6198065;23;20410;-53
2022/03/07 13:57:45;;;;;;;8.60;6.83;;;;;;;;;;6195507;23;20374;-53
2022/03/07 14:00:16;;;;;;;7.60;6.50;;;;;;;;;;6194233;23;20372;-53
2022/03/07 14:02:44;;;;;;;11.73;9.30;;;;;;;;;;6195043;23;21367;-53
2022/03/07 14:05:11;;;;;;;9.67;6.20;;;;;;;;;;6197194;23;20374;-53
2022/03/07 14:07:37;;;;;;;9.30;7.40;;;;;;;;;;6197377;23;20376;-53
2022/03/07 14:10:03;;;;;;;10.17;7.50;;;;;;;;;;6195229;23;20363;-52
2022/03/07 14:12:32;;;;;;;10.90;7.23;;;;;;;;;;6192836;23;20784;-53
2022/03/07 14:15:08;;;;;;;8.40;6.80;;;;;;;;;;6194908;23;20152;-52
2022/03/07 14:17:35;;;;;;;12.37;7.33;;;;;;;;;;6195257;23;20440;-53
2022/03/07 14:20:01;;;;;;;9.27;7.00;;;;;;;;;;6196758;23;20393;-52
2022/03/07 14:22:28;;;;;;;9.07;7.87;;;;;;;;;;6194493;23;20367;-51
2022/03/07 14:24:54;;;;;;;9.57;7.63;;;;;;;;;;6197184;23;20382;-52
2022/03/07 14:27:27;;;;;;;10.80;7.80;;;;;;;;;;6197583;23;20371;-53
2022/03/07 14:29:53;;;;;;;10.53;7.80;;;;;;;;;;6197402;23;20371;-53
2022/03/07 14:32:19;;;;;;;12.27;8.43;;;;;;;;;;6197273;23;20426;-52
2022/03/07 14:34:45;;;;;;;14.07;8.20;;;;;;;;;;6196082;23;20592;-54